createdAt,value
2019-03-12T00:00:03.495Z,1023
2019-03-12T00:01:03.616Z,1023.1
2019-03-12T00:02:03.340Z,1023.2
2019-03-12T00:03:03.704Z,1023.1
2019-03-12T00:04:03.162Z,1023.1
2019-03-12T00:05:03.829Z,1023.3
2019-03-12T00:06:03.395Z,1023.3
2019-03-12T00:07:03.804Z,1023.3
2019-03-12T00:08:03.708Z,1023.4
2019-03-12T00:09:03.199Z,1023.4
2019-03-12T00:10:03.499Z,1023.4
2019-03-12T00:11:03.646Z,1023.4
2019-03-12T00:12:03.341Z,1023.5
2019-03-12T00:13:03.842Z,1023.4
2019-03-12T00:14:03.688Z,1023.4
2019-03-12T00:15:03.518Z,1023.5
2019-03-12T00:16:03.568Z,1023.5
2019-03-12T00:17:03.619Z,1023.5
2019-03-12T00:18:03.430Z,1023.5
2019-03-12T00:19:03.263Z,1023.6
2019-03-12T00:20:03.182Z,1023.6
2019-03-12T00:21:03.467Z,1023.7
2019-03-12T00:22:03.284Z,1023.7
2019-03-12T00:23:03.418Z,1023.7
2019-03-12T00:24:03.074Z,1023.7
2019-03-12T00:25:03.528Z,1023.8
2019-03-12T00:26:04.083Z,1023.7
2019-03-12T00:27:03.362Z,1023.7
2019-03-12T00:28:03.309Z,1023.6
2019-03-12T00:29:03.328Z,1023.9
2019-03-12T00:30:04.005Z,1023.9
2019-03-12T00:31:03.373Z,1023.7
2019-03-12T00:32:02.947Z,1023.7
2019-03-12T00:33:03.194Z,1023.6
2019-03-12T00:34:03.317Z,1023.6
2019-03-12T00:35:03.029Z,1023.6
2019-03-12T00:36:03.429Z,1023.6
2019-03-12T00:37:03.483Z,1023.8
2019-03-12T00:38:02.976Z,1023.8
2019-03-12T00:39:03.332Z,1023.7
2019-03-12T00:40:03.296Z,1023.8
2019-03-12T00:41:03.062Z,1023.9
2019-03-12T00:42:03.084Z,1023.8
2019-03-12T00:43:03.349Z,1023.8
2019-03-12T00:44:03.901Z,1023.8
2019-03-12T00:45:03.319Z,1023.9
2019-03-12T00:46:02.891Z,1023.9
2019-03-12T00:47:03.427Z,1023.8
2019-03-12T00:48:03.837Z,1023.9
2019-03-12T00:49:04.082Z,1024
2019-03-12T00:50:03.357Z,1023.9
2019-03-12T00:51:04.104Z,1023.8
2019-03-12T00:52:02.941Z,1023.8
2019-03-12T00:53:03.853Z,1024
2019-03-12T00:54:03.348Z,1023.9
2019-03-12T00:55:04.012Z,1023.9
2019-03-12T00:56:03.969Z,1023.8
2019-03-12T00:57:04.039Z,1024
2019-03-12T00:58:03.839Z,1024
2019-03-12T00:59:03.779Z,1023.9
2019-03-12T01:00:03.634Z,1023.9
2019-03-12T01:01:03.652Z,1024
2019-03-12T01:02:03.557Z,1024
2019-03-12T01:03:03.246Z,1024
2019-03-12T01:04:03.322Z,1023.9
2019-03-12T01:05:04.092Z,1023.9
2019-03-12T01:06:03.632Z,1023.9
2019-03-12T01:07:03.952Z,1024
2019-03-12T01:08:03.190Z,1024
2019-03-12T01:09:03.349Z,1023.9
2019-03-12T01:10:03.622Z,1024
2019-03-12T01:11:03.616Z,1024
2019-03-12T01:12:03.565Z,1024
2019-03-12T01:13:03.711Z,1023.9
2019-03-12T01:14:03.143Z,1024
2019-03-12T01:15:03.403Z,1024
2019-03-12T01:16:03.524Z,1024.1
2019-03-12T01:17:03.301Z,1024
2019-03-12T01:18:03.319Z,1023.9
2019-03-12T01:19:03.363Z,1023.9
2019-03-12T01:20:03.177Z,1024
2019-03-12T01:21:03.262Z,1024
2019-03-12T01:22:03.484Z,1023.9
2019-03-12T01:23:03.513Z,1024
2019-03-12T01:24:03.432Z,1024
2019-03-12T01:25:03.211Z,1024
2019-03-12T01:26:03.217Z,1024.2
2019-03-12T01:27:03.071Z,1024
2019-03-12T01:28:03.110Z,1024.1
2019-03-12T01:29:03.223Z,1024.2
2019-03-12T01:30:03.171Z,1024.1
2019-03-12T01:31:03.416Z,1024.2
2019-03-12T01:32:02.945Z,1024.2
2019-03-12T01:33:03.214Z,1024.2
2019-03-12T01:34:03.259Z,1024.2
2019-03-12T01:35:03.322Z,1024.2
2019-03-12T01:36:02.980Z,1024.2
2019-03-12T01:37:03.213Z,1024.3
2019-03-12T01:38:03.479Z,1024.2
2019-03-12T01:39:02.707Z,1024.2
2019-03-12T01:40:03.164Z,1024.3
2019-03-12T01:41:03.305Z,1024.3
2019-03-12T01:42:03.525Z,1024.4
2019-03-12T01:43:03.250Z,1024.3
2019-03-12T01:44:03.209Z,1024.3
2019-03-12T01:45:03.314Z,1024.5
2019-03-12T01:46:03.967Z,1024.5
2019-03-12T01:47:04.057Z,1024.5
2019-03-12T01:48:03.184Z,1024.5
2019-03-12T01:49:03.371Z,1024.5
2019-03-12T01:50:04.029Z,1024.6
2019-03-12T01:51:03.297Z,1024.6
2019-03-12T01:52:03.503Z,1024.6
2019-03-12T01:53:03.737Z,1024.5
2019-03-12T01:54:03.848Z,1024.6
2019-03-12T01:55:03.881Z,1024.5
2019-03-12T01:56:03.734Z,1024.6
2019-03-12T01:57:03.581Z,1024.6
2019-03-12T01:58:03.727Z,1024.6
2019-03-12T01:59:03.823Z,1024.5
2019-03-12T02:00:04.030Z,1024.6
2019-03-12T02:01:03.409Z,1024.6
2019-03-12T02:02:04.040Z,1024.6
2019-03-12T02:03:03.431Z,1024.6
2019-03-12T02:04:03.794Z,1024.7
2019-03-12T02:05:03.775Z,1024.7
2019-03-12T02:06:03.765Z,1024.8
2019-03-12T02:07:03.337Z,1024.8
2019-03-12T02:08:03.503Z,1024.7
2019-03-12T02:09:03.404Z,1024.8
2019-03-12T02:10:03.442Z,1024.8
2019-03-12T02:11:03.457Z,1024.8
2019-03-12T02:12:03.601Z,1024.8
2019-03-12T02:13:03.575Z,1024.9
2019-03-12T02:14:03.283Z,1024.8
2019-03-12T02:15:03.764Z,1024.8
2019-03-12T02:16:03.329Z,1024.9
2019-03-12T02:17:03.280Z,1024.9
2019-03-12T02:18:03.564Z,1024.9
2019-03-12T02:19:03.341Z,1025
2019-03-12T02:20:03.032Z,1024.8
2019-03-12T02:21:03.048Z,1024.9
2019-03-12T02:22:03.235Z,1024.9
2019-03-12T02:23:03.126Z,1024.7
2019-03-12T02:24:03.362Z,1024.8
2019-03-12T02:25:03.310Z,1024.7
2019-03-12T02:26:03.103Z,1024.7
2019-03-12T02:27:03.917Z,1024.7
2019-03-12T02:28:03.161Z,1024.7
2019-03-12T02:29:02.326Z,1024.8
2019-03-12T02:30:03.244Z,1024.8
2019-03-12T02:31:02.945Z,1024.8
2019-03-12T02:32:04.020Z,1024.9
2019-03-12T02:33:03.069Z,1025
2019-03-12T02:34:03.101Z,1025
2019-03-12T02:35:03.159Z,1025
2019-03-12T02:36:03.266Z,1024.9
2019-03-12T02:37:03.181Z,1025
2019-03-12T02:38:03.751Z,1025
2019-03-12T02:39:03.927Z,1025
2019-03-12T02:40:03.930Z,1025
2019-03-12T02:41:02.707Z,1025
2019-03-12T02:42:03.484Z,1025
2019-03-12T02:43:03.738Z,1025
2019-03-12T02:44:03.453Z,1025
2019-03-12T02:45:03.594Z,1025.1
2019-03-12T02:46:03.387Z,1025.1
2019-03-12T02:47:03.812Z,1025.1
2019-03-12T02:48:04.068Z,1025.1
2019-03-12T02:49:04.121Z,1025.1
2019-03-12T02:50:03.737Z,1025.2
2019-03-12T02:51:03.064Z,1025.1
2019-03-12T02:52:03.443Z,1025.2
2019-03-12T02:53:03.292Z,1025.2
2019-03-12T02:54:03.525Z,1025.1
2019-03-12T02:55:03.747Z,1025.2
2019-03-12T02:56:03.521Z,1025.2
2019-03-12T02:57:03.518Z,1025.3
2019-03-12T02:58:03.561Z,1025.2
2019-03-12T02:59:03.542Z,1025.3
2019-03-12T03:00:03.473Z,1025.3
2019-03-12T03:01:03.383Z,1025.4
2019-03-12T03:02:03.048Z,1025.3
2019-03-12T03:03:03.300Z,1025.3
2019-03-12T03:04:03.266Z,1025.3
2019-03-12T03:05:03.803Z,1025.4
2019-03-12T03:06:03.031Z,1025.5
2019-03-12T03:07:03.010Z,1025.5
2019-03-12T03:08:03.705Z,1025.5
2019-03-12T03:09:03.866Z,1025.6
2019-03-12T03:10:03.313Z,1025.4
2019-03-12T03:11:02.999Z,1025.6
2019-03-12T03:12:03.091Z,1025.5
2019-03-12T03:13:03.075Z,1025.5
2019-03-12T03:14:03.878Z,1025.6
2019-03-12T03:15:03.253Z,1025.6
2019-03-12T03:16:04.014Z,1025.6
2019-03-12T03:17:03.173Z,1025.6
2019-03-12T03:18:04.019Z,1025.5
2019-03-12T03:19:03.848Z,1025.6
2019-03-12T03:20:03.780Z,1025.7
2019-03-12T03:21:04.165Z,1025.6
2019-03-12T03:22:04.015Z,1025.6
2019-03-12T03:23:03.518Z,1025.5
2019-03-12T03:24:03.910Z,1025.6
2019-03-12T03:25:03.811Z,1025.7
2019-03-12T03:26:04.238Z,1025.7
2019-03-12T03:27:03.281Z,1025.8
2019-03-12T03:28:03.980Z,1025.8
2019-03-12T03:29:03.639Z,1025.7
2019-03-12T03:30:03.479Z,1025.8
2019-03-12T03:31:04.232Z,1025.8
2019-03-12T03:32:04.086Z,1025.8
2019-03-12T03:33:03.758Z,1025.9
2019-03-12T03:34:03.607Z,1025.8
2019-03-12T03:35:03.804Z,1025.9
2019-03-12T03:36:03.493Z,1025.8
2019-03-12T03:37:03.291Z,1025.9
2019-03-12T03:38:03.307Z,1025.8
2019-03-12T03:39:03.580Z,1025.8
2019-03-12T03:40:03.391Z,1025.9
2019-03-12T03:41:03.662Z,1025.9
2019-03-12T03:42:03.175Z,1025.9
2019-03-12T03:43:03.140Z,1025.8
2019-03-12T03:44:03.299Z,1025.9
2019-03-12T03:45:03.402Z,1025.9
2019-03-12T03:46:03.549Z,1025.9
2019-03-12T03:47:02.982Z,1025.9
2019-03-12T03:48:03.208Z,1025.9
2019-03-12T03:49:03.070Z,1025.9
2019-03-12T03:50:02.917Z,1025.9
2019-03-12T03:51:03.092Z,1025.9
2019-03-12T03:52:03.524Z,1025.9
2019-03-12T03:53:04.137Z,1025.9
2019-03-12T03:54:03.172Z,1025.8
2019-03-12T03:55:03.123Z,1025.8
2019-03-12T03:56:03.945Z,1025.9
2019-03-12T03:57:03.752Z,1025.8
2019-03-12T03:58:03.684Z,1025.8
2019-03-12T03:59:04.091Z,1025.9
2019-03-12T04:00:03.605Z,1025.9
2019-03-12T04:01:04.073Z,1026
2019-03-12T04:02:03.779Z,1025.9
2019-03-12T04:03:03.159Z,1025.9
2019-03-12T04:04:03.767Z,1025.9
2019-03-12T04:05:03.747Z,1026
2019-03-12T04:06:03.936Z,1026
2019-03-12T04:07:03.878Z,1026
2019-03-12T04:08:03.621Z,1026
2019-03-12T04:09:03.348Z,1026
2019-03-12T04:10:03.499Z,1026.1
2019-03-12T04:11:03.343Z,1026
2019-03-12T04:12:03.614Z,1026
2019-03-12T04:13:03.333Z,1025.9
2019-03-12T04:14:03.201Z,1026
2019-03-12T04:15:03.621Z,1025.9
2019-03-12T04:16:03.469Z,1026
2019-03-12T04:17:03.129Z,1026.1
2019-03-12T04:18:03.357Z,1026.1
2019-03-12T04:19:03.596Z,1026.2
2019-03-12T04:20:03.759Z,1026.2
2019-03-12T04:21:03.282Z,1026.1
2019-03-12T04:22:03.275Z,1026.2
2019-03-12T04:23:03.478Z,1026.1
2019-03-12T04:24:03.193Z,1026.1
2019-03-12T04:25:03.026Z,1026.3
2019-03-12T04:26:03.385Z,1026.4
2019-03-12T04:27:03.810Z,1026.3
2019-03-12T04:28:03.029Z,1026.4
2019-03-12T04:29:03.048Z,1026.3
2019-03-12T04:30:03.517Z,1026.3
2019-03-12T04:31:03.488Z,1026.3
2019-03-12T04:32:03.212Z,1026.2
2019-03-12T04:33:03.142Z,1026.1
2019-03-12T04:34:03.364Z,1026.5
2019-03-12T04:35:04.025Z,1026.3
2019-03-12T04:36:03.186Z,1026.3
2019-03-12T04:37:02.974Z,1026.3
2019-03-12T04:38:02.714Z,1026.3
2019-03-12T04:39:03.539Z,1026.5
2019-03-12T04:40:04.022Z,1026.3
2019-03-12T04:41:03.414Z,1026.3
2019-03-12T04:42:03.532Z,1026.3
2019-03-12T04:43:04.035Z,1026.5
2019-03-12T04:44:03.721Z,1026.3
2019-03-12T04:45:03.976Z,1026.3
2019-03-12T04:46:03.649Z,1026.3
2019-03-12T04:47:03.883Z,1026.4
2019-03-12T04:48:03.405Z,1026.4
2019-03-12T04:49:03.689Z,1026.5
2019-03-12T04:50:03.748Z,1026.5
2019-03-12T04:51:03.711Z,1026.5
2019-03-12T04:52:03.587Z,1026.5
2019-03-12T04:53:03.614Z,1026.5
2019-03-12T04:54:03.235Z,1026.5
2019-03-12T04:55:03.724Z,1026.3
2019-03-12T04:56:03.568Z,1026.3
2019-03-12T04:57:03.326Z,1026.3
2019-03-12T04:58:03.561Z,1026.3
2019-03-12T04:59:03.533Z,1026.6
2019-03-12T05:00:03.879Z,1026.5
2019-03-12T05:01:03.373Z,1026.5
2019-03-12T05:02:03.509Z,1026.5
2019-03-12T05:03:03.158Z,1026.5
2019-03-12T05:04:03.235Z,1026.5
2019-03-12T05:05:03.426Z,1026.3
2019-03-12T05:06:03.180Z,1026.5
2019-03-12T05:07:03.441Z,1026.5
2019-03-12T05:08:03.196Z,1026.5
2019-03-12T05:09:03.368Z,1026.5
2019-03-12T05:10:03.197Z,1026.6
2019-03-12T05:11:03.303Z,1026.5
2019-03-12T05:12:03.249Z,1026.5
2019-03-12T05:13:03.001Z,1026.5
2019-03-12T05:14:03.136Z,1026.6
2019-03-12T05:15:03.058Z,1026.6
2019-03-12T05:16:03.077Z,1026.5
2019-03-12T05:17:03.094Z,1026.6
2019-03-12T05:18:03.875Z,1026.7
2019-03-12T05:19:02.807Z,1026.5
2019-03-12T05:20:04.003Z,1026.6
2019-03-12T05:21:03.683Z,1026.6
2019-03-12T05:22:02.848Z,1026.5
2019-03-12T05:23:03.894Z,1026.5
2019-03-12T05:24:03.808Z,1026.6
2019-03-12T05:25:03.696Z,1026.5
2019-03-12T05:26:03.530Z,1026.6
2019-03-12T05:27:03.869Z,1026.6
2019-03-12T05:28:03.869Z,1026.5
2019-03-12T05:29:03.701Z,1026.7
2019-03-12T05:30:03.545Z,1026.6
2019-03-12T05:31:03.617Z,1026.7
2019-03-12T05:32:03.561Z,1026.6
2019-03-12T05:33:03.371Z,1026.7
2019-03-12T05:34:03.444Z,1026.7
2019-03-12T05:35:03.668Z,1026.7
2019-03-12T05:36:03.470Z,1026.7
2019-03-12T05:37:03.527Z,1026.7
2019-03-12T05:38:03.480Z,1026.7
2019-03-12T05:39:03.671Z,1026.7
2019-03-12T05:40:03.556Z,1026.6
2019-03-12T05:41:03.140Z,1026.7
2019-03-12T05:42:03.359Z,1026.7
2019-03-12T05:43:03.271Z,1026.8
2019-03-12T05:44:03.258Z,1026.8
2019-03-12T05:45:03.638Z,1026.7
2019-03-12T05:46:03.277Z,1026.7
2019-03-12T05:47:02.856Z,1026.8
2019-03-12T05:48:02.885Z,1026.7
2019-03-12T05:49:03.112Z,1026.8
2019-03-12T05:50:02.970Z,1026.8
2019-03-12T05:51:03.373Z,1026.8
2019-03-12T05:52:03.206Z,1026.9
2019-03-12T05:53:03.069Z,1027
2019-03-12T05:54:02.895Z,1026.9
2019-03-12T05:55:03.166Z,1026.9
2019-03-12T05:56:03.375Z,1026.8
2019-03-12T05:57:03.195Z,1026.9
2019-03-12T05:58:03.862Z,1026.8
2019-03-12T05:59:03.022Z,1026.8
2019-03-12T06:00:03.825Z,1026.9
2019-03-12T06:01:03.690Z,1026.9
2019-03-12T06:02:04.095Z,1026.8
2019-03-12T06:03:03.004Z,1026.9
2019-03-12T06:04:03.644Z,1026.8
2019-03-12T06:05:03.648Z,1026.8
2019-03-12T06:06:03.600Z,1026.9
2019-03-12T06:07:04.057Z,1026.8
2019-03-12T06:08:02.891Z,1026.8
2019-03-12T06:09:02.843Z,1026.9
2019-03-12T06:10:03.967Z,1026.9
2019-03-12T06:11:03.734Z,1026.8
2019-03-12T06:12:03.647Z,1026.8
2019-03-12T06:13:03.747Z,1026.8
2019-03-12T06:14:03.698Z,1026.8
2019-03-12T06:15:03.598Z,1026.8
2019-03-12T06:16:03.604Z,1026.8
2019-03-12T06:17:03.258Z,1026.9
2019-03-12T06:18:03.506Z,1026.9
2019-03-12T06:19:03.269Z,1026.9
2019-03-12T06:20:03.254Z,1026.8
2019-03-12T06:21:03.470Z,1026.9
2019-03-12T06:22:03.345Z,1026.9
2019-03-12T06:23:03.138Z,1026.8
2019-03-12T06:24:03.562Z,1026.9
2019-03-12T06:25:04.059Z,1026.9
2019-03-12T06:26:03.041Z,1026.9
2019-03-12T06:27:03.408Z,1026.9
2019-03-12T06:28:03.115Z,1026.9
2019-03-12T06:29:03.140Z,1026.9
2019-03-12T06:30:03.214Z,1026.9
2019-03-12T06:31:03.220Z,1027
2019-03-12T06:32:03.567Z,1027
2019-03-12T06:33:03.128Z,1026.9
2019-03-12T06:34:03.094Z,1027
2019-03-12T06:35:02.849Z,1027
2019-03-12T06:36:03.064Z,1027
2019-03-12T06:37:03.138Z,1026.9
2019-03-12T06:38:03.028Z,1027
2019-03-12T06:39:03.777Z,1027
2019-03-12T06:40:02.996Z,1027
2019-03-12T06:41:03.031Z,1026.9
2019-03-12T06:42:03.032Z,1027
2019-03-12T06:43:03.779Z,1026.9
2019-03-12T06:44:03.165Z,1027
2019-03-12T06:45:02.817Z,1026.9
2019-03-12T06:46:03.876Z,1027
2019-03-12T06:47:03.818Z,1027
2019-03-12T06:48:03.999Z,1027
2019-03-12T06:49:03.485Z,1026.9
2019-03-12T06:50:03.950Z,1027
2019-03-12T06:51:03.842Z,1027
2019-03-12T06:52:02.997Z,1027
2019-03-12T06:53:03.377Z,1027.1
2019-03-12T06:54:03.820Z,1027.1
2019-03-12T06:55:03.977Z,1027
2019-03-12T06:56:03.273Z,1027.1
2019-03-12T06:57:03.303Z,1027
2019-03-12T06:58:03.652Z,1027
2019-03-12T06:59:03.459Z,1027
2019-03-12T07:00:03.524Z,1027.1
2019-03-12T07:01:03.430Z,1027
2019-03-12T07:02:03.174Z,1026.9
2019-03-12T07:03:03.690Z,1027
2019-03-12T07:04:03.435Z,1026.9
2019-03-12T07:05:03.463Z,1027
2019-03-12T07:06:03.837Z,1027.1
2019-03-12T07:07:13.140Z,1027
2019-03-12T07:08:06.850Z,1027
2019-03-12T07:09:03.372Z,1026.9
2019-03-12T07:10:03.249Z,1026.9
2019-03-12T07:11:03.101Z,1026.9
2019-03-12T07:12:03.171Z,1026.9
2019-03-12T07:13:03.906Z,1026.9
2019-03-12T07:14:03.031Z,1026.9
2019-03-12T07:15:03.538Z,1026.9
2019-03-12T07:16:02.896Z,1027
2019-03-12T07:17:03.029Z,1026.9
2019-03-12T07:18:03.113Z,1027
2019-03-12T07:19:04.139Z,1027
2019-03-12T07:20:03.964Z,1027
2019-03-12T07:21:03.848Z,1027
2019-03-12T07:22:03.190Z,1027
2019-03-12T07:23:03.807Z,1027.1
2019-03-12T07:24:03.494Z,1027
2019-03-12T07:25:03.728Z,1027.1
2019-03-12T07:26:03.909Z,1027.1
2019-03-12T07:27:03.807Z,1027
2019-03-12T07:28:03.733Z,1027
2019-03-12T07:29:03.559Z,1026.9
2019-03-12T07:30:03.644Z,1027
2019-03-12T07:31:04.010Z,1027
2019-03-12T07:32:03.469Z,1027
2019-03-12T07:33:03.638Z,1027
2019-03-12T07:34:03.607Z,1027
2019-03-12T07:35:03.515Z,1027
2019-03-12T07:36:03.597Z,1027.1
2019-03-12T07:37:03.200Z,1027
2019-03-12T07:38:03.091Z,1027
2019-03-12T07:39:03.472Z,1027
2019-03-12T07:40:03.066Z,1026.9
2019-03-12T07:41:02.961Z,1026.8
2019-03-12T07:42:03.532Z,1026.8
2019-03-12T07:43:02.986Z,1026.8
2019-03-12T07:44:03.337Z,1026.9
2019-03-12T07:45:03.282Z,1026.9
2019-03-12T07:46:03.622Z,1026.8
2019-03-12T07:47:03.445Z,1026.8
2019-03-12T07:48:03.037Z,1026.8
2019-03-12T07:49:02.924Z,1026.8
2019-03-12T07:50:03.415Z,1026.8
2019-03-12T07:51:03.201Z,1026.7
2019-03-12T07:52:03.064Z,1026.8
2019-03-12T07:53:03.436Z,1026.7
2019-03-12T07:54:02.701Z,1026.6
2019-03-12T07:55:04.075Z,1026.7
2019-03-12T07:56:02.848Z,1026.8
2019-03-12T07:57:03.317Z,1026.7
2019-03-12T07:58:03.055Z,1026.7
2019-03-12T07:59:03.335Z,1026.8
2019-03-12T08:00:03.345Z,1026.8
2019-03-12T08:01:03.258Z,1026.9
2019-03-12T08:02:03.142Z,1026.9
2019-03-12T08:03:03.798Z,1026.8
2019-03-12T08:04:02.957Z,1026.8
2019-03-12T08:05:03.921Z,1026.8
2019-03-12T08:06:03.924Z,1026.8
2019-03-12T08:07:03.864Z,1026.9
2019-03-12T08:08:03.376Z,1026.8
2019-03-12T08:09:03.697Z,1026.6
2019-03-12T08:10:04.175Z,1026.7
2019-03-12T08:11:03.621Z,1026.8
2019-03-12T08:12:03.857Z,1026.9
2019-03-12T08:13:03.793Z,1026.9
2019-03-12T08:14:03.528Z,1026.9
2019-03-12T08:15:03.441Z,1026.7
2019-03-12T08:16:03.134Z,1026.7
2019-03-12T08:17:03.726Z,1026.7
2019-03-12T08:18:03.656Z,1026.5
2019-03-12T08:19:03.056Z,1026.7
2019-03-12T08:20:03.611Z,1026.6
2019-03-12T08:21:03.751Z,1026.6
2019-03-12T08:22:03.632Z,1026.7
2019-03-12T08:23:03.393Z,1026.6
2019-03-12T08:24:03.439Z,1026.6
2019-03-12T08:25:03.519Z,1026.6
2019-03-12T08:26:03.446Z,1026.4
2019-03-12T08:27:03.443Z,1026.6
2019-03-12T08:28:03.343Z,1026.4
2019-03-12T08:29:03.257Z,1026.4
2019-03-12T08:30:03.507Z,1026.4
2019-03-12T08:31:03.211Z,1026.4
2019-03-12T08:32:03.368Z,1026.4
2019-03-12T08:33:03.043Z,1026.4
2019-03-12T08:34:03.285Z,1026.4
2019-03-12T08:35:03.099Z,1026.4
2019-03-12T08:36:03.172Z,1026.4
2019-03-12T08:37:03.130Z,1026.4
2019-03-12T08:38:03.080Z,1026.2
2019-03-12T08:39:04.036Z,1026.3
2019-03-12T08:40:03.281Z,1026.3
2019-03-12T08:41:03.232Z,1026.3
2019-03-12T08:42:03.894Z,1026.1
2019-03-12T08:43:03.945Z,1026.1
2019-03-12T08:44:03.892Z,1026.1
2019-03-12T08:45:03.863Z,1026.1
2019-03-12T08:46:03.429Z,1025.9
2019-03-12T08:47:03.427Z,1025.9
2019-03-12T08:48:03.783Z,1026.1
2019-03-12T08:49:04.487Z,1025.9
2019-03-12T08:50:03.637Z,1026.1
2019-03-12T08:51:05.981Z,1026
2019-03-12T08:52:03.489Z,1026
2019-03-12T08:53:03.811Z,1025.8
2019-03-12T08:54:02.977Z,1025.8
2019-03-12T08:55:04.824Z,1025.8
2019-03-12T08:56:03.319Z,1025.7
2019-03-12T08:57:03.764Z,1025.6
2019-03-12T08:58:03.775Z,1025.6
2019-03-12T08:59:03.721Z,1025.6
2019-03-12T09:00:03.787Z,1025.5
2019-03-12T09:01:03.672Z,1025.6
2019-03-12T09:02:03.908Z,1025.6
2019-03-12T09:03:03.624Z,1025.5
2019-03-12T09:04:03.295Z,1025.5
2019-03-12T09:05:03.860Z,1025.5
2019-03-12T09:06:03.504Z,1025.5
2019-03-12T09:07:05.744Z,1025.5
2019-03-12T09:08:03.586Z,1025.4
2019-03-12T09:09:03.444Z,1025.6
2019-03-12T09:10:03.689Z,1025.5
2019-03-12T09:11:03.421Z,1025.5
2019-03-12T09:12:03.473Z,1025.5
2019-03-12T09:13:03.561Z,1025.4
2019-03-12T09:14:03.662Z,1025.6
2019-03-12T09:15:03.234Z,1025.6
2019-03-12T09:16:03.737Z,1025.5
2019-03-12T09:17:03.283Z,1025.5
2019-03-12T09:18:03.841Z,1025.6
2019-03-12T09:19:03.419Z,1025.7
2019-03-12T09:20:03.236Z,1025.6
2019-03-12T09:21:03.388Z,1025.6
2019-03-12T09:22:03.566Z,1025.7
2019-03-12T09:23:03.288Z,1025.6
2019-03-12T09:24:03.275Z,1025.6
2019-03-12T09:25:03.323Z,1025.6
2019-03-12T09:26:03.039Z,1025.5
2019-03-12T09:27:03.329Z,1025.5
2019-03-12T09:28:02.967Z,1025.4
2019-03-12T09:29:03.353Z,1025.2
2019-03-12T09:30:03.704Z,1025.3
2019-03-12T09:31:03.078Z,1025.4
2019-03-12T09:32:03.935Z,1025.3
2019-03-12T09:33:03.076Z,1025.3
2019-03-12T09:34:03.681Z,1025.3
2019-03-12T09:35:03.560Z,1025.2
2019-03-12T09:36:03.411Z,1025.2
2019-03-12T09:37:03.394Z,1025.3
2019-03-12T09:38:11.179Z,1025.3
2019-03-12T09:39:03.980Z,1025.3
2019-03-12T09:40:03.194Z,1025.2
2019-03-12T09:41:03.826Z,1025
2019-03-12T09:42:03.135Z,1025.2
2019-03-12T09:43:03.166Z,1025.2
2019-03-12T09:44:02.994Z,1025.2
2019-03-12T09:45:04.075Z,1025.3
2019-03-12T09:46:03.828Z,1025.3
2019-03-12T09:47:02.989Z,1025.2
2019-03-12T09:48:03.725Z,1025.2
2019-03-12T09:49:03.745Z,1025.2
2019-03-12T09:50:03.530Z,1025.3
2019-03-12T09:51:03.943Z,1025.3
2019-03-12T09:52:03.622Z,1025.2
2019-03-12T09:53:03.857Z,1025.2
2019-03-12T09:54:03.615Z,1025.2
2019-03-12T09:55:05.446Z,1025.2
2019-03-12T09:56:03.841Z,1025.1
2019-03-12T09:57:03.691Z,1025
2019-03-12T09:58:03.684Z,1024.9
2019-03-12T09:59:03.549Z,1024.9
2019-03-12T10:00:17.216Z,1024.9
2019-03-12T10:01:03.901Z,1024.8
2019-03-12T10:02:03.906Z,1024.7
2019-03-12T10:03:03.739Z,1024.6
2019-03-12T10:04:03.951Z,1024.6
2019-03-12T10:05:03.605Z,1024.7
2019-03-12T10:06:03.758Z,1024.6
2019-03-12T10:07:04.066Z,1024.6
2019-03-12T10:08:03.905Z,1024.7
2019-03-12T10:09:03.826Z,1024.5
2019-03-12T10:10:03.351Z,1024.5
2019-03-12T10:11:03.689Z,1024.6
2019-03-12T10:12:03.029Z,1024.4
2019-03-12T10:13:03.695Z,1024.3
2019-03-12T10:14:03.720Z,1024.4
2019-03-12T10:15:03.468Z,1024.3
2019-03-12T10:16:03.584Z,1024.2
2019-03-12T10:17:03.666Z,1024.4
2019-03-12T10:18:03.409Z,1024.3
2019-03-12T10:19:03.403Z,1024.3
2019-03-12T10:20:03.223Z,1024.4
2019-03-12T10:21:03.420Z,1024.3
2019-03-12T10:22:03.379Z,1024.4
2019-03-12T10:23:02.801Z,1024.3
2019-03-12T10:24:03.483Z,1024.3
2019-03-12T10:25:03.495Z,1024.3
2019-03-12T10:26:03.239Z,1024.3
2019-03-12T10:27:03.285Z,1024.3
2019-03-12T10:28:03.083Z,1024.3
2019-03-12T10:29:03.058Z,1024.3
2019-03-12T10:30:03.072Z,1024.2
2019-03-12T10:31:03.010Z,1024.3
2019-03-12T10:32:02.965Z,1024.1
2019-03-12T10:33:03.097Z,1024
2019-03-12T10:34:03.118Z,1024.1
2019-03-12T10:35:03.268Z,1024.1
2019-03-12T10:36:04.216Z,1024
2019-03-12T10:37:17.034Z,1024.1
2019-03-12T10:38:02.952Z,1024
2019-03-12T10:39:03.660Z,1024
2019-03-12T10:40:02.894Z,1024.2
2019-03-12T10:41:03.764Z,1024.2
2019-03-12T10:42:03.972Z,1024.2
2019-03-12T10:43:02.155Z,1024.1
2019-03-12T10:44:03.350Z,1024.1
2019-03-12T10:45:04.116Z,1024.1
2019-03-12T10:46:03.817Z,1024.1
2019-03-12T10:47:03.793Z,1024
2019-03-12T10:48:03.914Z,1024
2019-03-12T10:49:04.024Z,1024.2
2019-03-12T10:50:03.880Z,1024.1
2019-03-12T10:51:02.848Z,1024.1
2019-03-12T10:52:03.701Z,1024.2
2019-03-12T10:53:03.538Z,1024.2
2019-03-12T10:54:03.616Z,1024
2019-03-12T10:55:14.522Z,1024
2019-03-12T10:56:03.514Z,1024
2019-03-12T10:57:03.741Z,1024
2019-03-12T10:58:03.542Z,1024.1
2019-03-12T10:59:03.608Z,1024
2019-03-12T11:00:04.057Z,1024.1
2019-03-12T11:01:03.443Z,1023.9
2019-03-12T11:02:03.876Z,1024
2019-03-12T11:03:03.486Z,1023.9
2019-03-12T11:04:03.350Z,1023.9
2019-03-12T11:05:03.982Z,1024
2019-03-12T11:06:03.833Z,1023.8
2019-03-12T11:07:17.362Z,1023.9
2019-03-12T11:08:07.468Z,1023.9
2019-03-12T11:09:03.500Z,1023.5
2019-03-12T11:10:03.403Z,1023.5
2019-03-12T11:11:03.253Z,1023.5
2019-03-12T11:12:03.912Z,1023.4
2019-03-12T11:13:03.872Z,1023.4
2019-03-12T11:14:03.211Z,1023.4
2019-03-12T11:15:03.665Z,1023.4
2019-03-12T11:16:03.432Z,1023.3
2019-03-12T11:17:03.654Z,1023.4
2019-03-12T11:18:03.451Z,1023.4
2019-03-12T11:19:03.387Z,1023.4
2019-03-12T11:20:03.372Z,1023.4
2019-03-12T11:21:03.288Z,1023.4
2019-03-12T11:22:03.544Z,1023.4
2019-03-12T11:23:03.345Z,1023.5
2019-03-12T11:24:03.275Z,1023.4
2019-03-12T11:25:03.431Z,1023.2
2019-03-12T11:26:03.589Z,1023.2
2019-03-12T11:27:02.942Z,1023.3
2019-03-12T11:28:03.004Z,1023
2019-03-12T11:29:02.852Z,1023
2019-03-12T11:30:03.548Z,1023
2019-03-12T11:31:04.130Z,1023
2019-03-12T11:32:03.779Z,1023
2019-03-12T11:33:03.583Z,1023
2019-03-12T11:34:03.834Z,1023
2019-03-12T11:35:03.639Z,1023
2019-03-12T11:36:03.747Z,1023
2019-03-12T11:37:03.820Z,1022.9
2019-03-12T11:38:03.771Z,1022.9
2019-03-12T11:39:03.935Z,1022.9
2019-03-12T11:40:04.319Z,1022.8
2019-03-12T11:41:04.115Z,1022.6
2019-03-12T11:42:03.989Z,1022.6
2019-03-12T11:43:03.942Z,1022.5
2019-03-12T11:44:03.476Z,1022.4
2019-03-12T11:45:38.691Z,1022.6
2019-03-12T11:46:03.862Z,1022.4
2019-03-12T11:47:04.050Z,1022.5
2019-03-12T11:48:04.107Z,1022.5
2019-03-12T11:49:03.481Z,1022.4
2019-03-12T11:50:03.814Z,1022.4
2019-03-12T11:51:03.895Z,1022.3
2019-03-12T11:52:03.488Z,1022.4
2019-03-12T11:53:04.625Z,1022.3
2019-03-12T11:54:04.366Z,1022.2
2019-03-12T11:55:03.729Z,1022.3
2019-03-12T11:56:04.076Z,1022.2
2019-03-12T11:57:03.369Z,1022.2
2019-03-12T11:58:03.628Z,1022.2
2019-03-12T11:59:03.036Z,1022.2
2019-03-12T12:00:03.826Z,1022.1
2019-03-12T12:01:04.535Z,1022.2
2019-03-12T12:02:03.175Z,1022.1
2019-03-12T12:03:03.110Z,1022.2
2019-03-12T12:04:03.554Z,1022.1
2019-03-12T12:05:03.154Z,1022.2
2019-03-12T12:06:03.571Z,1022.1
2019-03-12T12:07:03.184Z,1022.2
2019-03-12T12:08:03.661Z,1022
2019-03-12T12:09:04.251Z,1022
2019-03-12T12:10:03.337Z,1022
2019-03-12T12:11:03.226Z,1022
2019-03-12T12:12:02.997Z,1021.9
2019-03-12T12:13:04.091Z,1021.7
2019-03-12T12:14:02.985Z,1021.8
2019-03-12T12:15:03.847Z,1021.7
2019-03-12T12:16:04.112Z,1021.7
2019-03-12T12:17:03.691Z,1021.7
2019-03-12T12:18:03.771Z,1021.7
2019-03-12T12:19:03.023Z,1021.6
2019-03-12T12:20:03.624Z,1021.7
2019-03-12T12:21:03.795Z,1021.5
2019-03-12T12:22:03.731Z,1021.5
2019-03-12T12:23:03.585Z,1021.6
2019-03-12T12:24:03.510Z,1021.6
2019-03-12T12:25:03.988Z,1021.6
2019-03-12T12:26:03.574Z,1021.5
2019-03-12T12:27:03.449Z,1021.4
2019-03-12T12:28:03.827Z,1021.6
2019-03-12T12:29:03.811Z,1021.4
2019-03-12T12:30:03.750Z,1021.5
2019-03-12T12:31:03.205Z,1021.5
2019-03-12T12:32:03.837Z,1021.4
2019-03-12T12:33:03.602Z,1021.4
2019-03-12T12:34:03.614Z,1021.3
2019-03-12T12:35:03.654Z,1021.2